Time;durP1;ratioP1;P1;durP2;ratioP2;P2;SDS_P1;SDS_P2;PMS_P1;PMS_P2;Temp;Humidity;BMP_temperature;BMP_pressure;BME280_temperature;BME280_humidity;BME280_pressure;Samples;Min_cycle;Max_cycle;Signal;HPM_P1;HPM_P2
2024/03/08 00:02:03;;;;;;;14.10;9.73;;;12.40;89.70;;;;;;4996057;28;20041;-77
2024/03/08 00:04:29;;;;;;;13.23;9.55;;;12.40;89.60;;;;;;4996073;28;20034;-77
2024/03/08 00:06:54;;;;;;;15.13;9.68;;;12.40;89.60;;;;;;5013807;28;20581;-77
2024/03/08 00:09:21;;;;;;;13.93;10.13;;;12.40;89.60;;;;;;5013580;28;20026;-77
2024/03/08 00:11:47;;;;;;;13.60;9.05;;;12.40;89.60;;;;;;4995962;28;20033;-77
2024/03/08 00:14:12;;;;;;;15.57;10.90;;;12.40;89.60;;;;;;4995923;28;20394;-76
2024/03/08 00:16:38;;;;;;;13.93;9.65;;;12.40;89.60;;;;;;4995972;28;20034;-77
2024/03/08 00:19:03;;;;;;;13.13;9.70;;;12.40;89.60;;;;;;4995992;28;20029;-76
2024/03/08 00:21:29;;;;;;;14.10;9.77;;;12.30;89.50;;;;;;5013760;28;20029;-76
2024/03/08 00:23:54;;;;;;;14.10;9.82;;;12.40;89.60;;;;;;4995651;28;20052;-77
2024/03/08 00:26:22;;;;;;;12.73;9.05;;;12.40;89.60;;;;;;5013471;28;20057;-76
2024/03/08 00:28:48;;;;;;;13.52;10.02;;;12.40;89.60;;;;;;5013363;28;20049;-76
2024/03/08 00:31:15;;;;;;;13.60;10.07;;;12.40;89.70;;;;;;4995686;28;20026;-77
2024/03/08 00:33:41;;;;;;;13.07;9.50;;;12.30;89.50;;;;;;4995374;28;20026;-77
2024/03/08 00:36:07;;;;;;;12.45;9.43;;;12.40;89.60;;;;;;5013173;28;20076;-77
2024/03/08 00:38:34;;;;;;;13.55;9.88;;;12.40;89.60;;;;;;4995456;28;20580;-77
2024/03/08 00:40:59;;;;;;;13.38;9.20;;;12.40;89.60;;;;;;4995430;28;20518;-77
2024/03/08 00:43:25;;;;;;;12.52;9.40;;;12.30;89.50;;;;;;4995090;28;20041;-77
2024/03/08 00:45:52;;;;;;;12.70;9.40;;;12.30;89.50;;;;;;5013335;28;20054;-76
2024/03/08 00:48:17;;;;;;;13.43;9.98;;;12.30;89.50;;;;;;4995528;28;20029;-77
2024/03/08 00:50:45;;;;;;;13.18;9.30;;;12.40;89.60;;;;;;5012878;28;20025;-77
2024/03/08 00:53:11;;;;;;;12.05;9.02;;;12.30;89.50;;;;;;4995226;28;20026;-77
2024/03/08 00:55:37;;;;;;;13.63;9.57;;;12.30;89.50;;;;;;4995506;28;20121;-77
2024/03/08 00:58:03;;;;;;;13.60;9.50;;;12.30;89.50;;;;;;5012466;28;20738;-77
2024/03/08 01:00:29;;;;;;;13.73;9.75;;;12.30;89.50;;;;;;4995236;28;20038;-77
2024/03/08 01:02:55;;;;;;;13.75;9.57;;;12.30;89.50;;;;;;4994792;28;20049;-77
2024/03/08 01:05:21;;;;;;;13.60;8.95;;;12.30;89.50;;;;;;4995120;28;20108;-77
2024/03/08 01:07:46;;;;;;;13.43;9.38;;;12.30;89.50;;;;;;4995197;28;20151;-77
2024/03/08 01:10:12;;;;;;;12.63;9.50;;;12.30;89.60;;;;;;5012646;28;20022;-77
2024/03/08 01:12:39;;;;;;;12.93;9.07;;;12.30;89.50;;;;;;4994747;28;20029;-77
2024/03/08 01:15:05;;;;;;;12.40;9.18;;;12.30;89.50;;;;;;4995069;28;20422;-77
2024/03/08 01:17:31;;;;;;;12.13;9.27;;;12.30;89.50;;;;;;4995041;28;20048;-77
2024/03/08 01:19:56;;;;;;;12.35;9.10;;;12.30;89.50;;;;;;4994751;28;20483;-77
2024/03/08 01:22:22;;;;;;;11.90;9.00;;;12.30;89.50;;;;;;5012362;28;20030;-76
2024/03/08 01:24:48;;;;;;;12.60;9.00;;;12.30;90.00;;;;;;5012587;28;20018;-77
2024/03/08 01:27:14;;;;;;;12.63;9.40;;;12.30;89.50;;;;;;5012675;28;20467;-78
2024/03/08 01:29:39;;;;;;;13.63;9.18;;;12.30;89.40;;;;;;4994660;28;20112;-77
2024/03/08 01:32:06;;;;;;;13.02;9.32;;;12.30;89.50;;;;;;5012423;28;20026;-77
2024/03/08 01:34:32;;;;;;;13.55;9.40;;;12.30;89.40;;;;;;5012676;28;20049;-77
2024/03/08 01:36:59;;;;;;;12.77;9.27;;;12.30;89.50;;;;;;4994677;28;20028;-78
2024/03/08 01:39:24;;;;;;;12.43;8.93;;;12.30;89.50;;;;;;4994669;28;20038;-77
2024/03/08 01:41:50;;;;;;;13.52;9.38;;;12.30;89.50;;;;;;5012154;28;20080;-75
2024/03/08 01:44:17;;;;;;;12.15;9.10;;;12.30;89.40;;;;;;4994855;28;20018;-76
2024/03/08 01:46:44;;;;;;;12.70;9.48;;;12.20;89.40;;;;;;4994833;28;20064;-77
2024/03/08 01:49:10;;;;;;;12.30;8.63;;;12.30;89.50;;;;;;4994766;28;20125;-77
2024/03/08 01:51:36;;;;;;;11.75;8.60;;;12.30;89.40;;;;;;4994783;28;20034;-77
2024/03/08 01:54:03;;;;;;;11.98;9.00;;;12.20;89.40;;;;;;4994374;28;20026;-77
2024/03/08 01:56:31;;;;;;;12.48;9.15;;;12.30;89.40;;;;;;4994660;28;20038;-77
2024/03/08 01:58:57;;;;;;;12.00;8.63;;;12.30;89.50;;;;;;4994636;28;20032;-77
2024/03/08 02:01:24;;;;;;;12.68;8.88;;;12.30;89.40;;;;;;4994527;28;20022;-77
2024/03/08 02:03:50;;;;;;;12.55;8.73;;;12.30;89.40;;;;;;4994362;28;20120;-77
2024/03/08 02:06:16;;;;;;;13.00;9.68;;;12.30;89.50;;;;;;4994616;28;20025;-77
2024/03/08 02:08:46;;;;;;;13.13;9.32;;;12.30;89.40;;;;;;4994420;28;20022;-77
2024/03/08 02:11:13;;;;;;;12.25;8.65;;;12.30;89.40;;;;;;5015352;28;20095;-77
2024/03/08 02:13:38;;;;;;;13.20;9.60;;;12.30;89.40;;;;;;4997867;28;20080;-76
2024/03/08 02:16:05;;;;;;;12.00;8.77;;;12.30;89.40;;;;;;5015664;28;20026;-77
2024/03/08 02:18:34;;;;;;;12.13;8.90;;;12.30;89.40;;;;;;4998243;28;20025;-77
2024/03/08 02:21:00;;;;;;;12.43;9.07;;;12.20;89.40;;;;;;4998130;28;20037;-77
2024/03/08 02:23:26;;;;;;;12.40;9.05;;;12.20;89.40;;;;;;4997683;28;20025;-77
2024/03/08 02:25:53;;;;;;;11.75;8.68;;;12.20;89.30;;;;;;4997775;28;20029;-76
2024/03/08 02:28:19;;;;;;;12.07;8.40;;;12.20;89.30;;;;;;5015617;28;20532;-76
2024/03/08 02:30:46;;;;;;;11.40;8.48;;;12.20;89.30;;;;;;4997840;28;20484;-77
2024/03/08 02:33:16;;;;;;;11.40;8.52;;;12.30;89.40;;;;;;5015269;28;20030;-76
2024/03/08 02:35:42;;;;;;;13.00;9.05;;;12.20;89.30;;;;;;5016002;28;20025;-77
2024/03/08 02:38:08;;;;;;;12.48;8.98;;;12.30;89.40;;;;;;5015525;28;20022;-77
2024/03/08 02:40:33;;;;;;;12.55;8.80;;;12.20;89.30;;;;;;4997796;28;20457;-77
2024/03/08 02:42:59;;;;;;;11.90;8.57;;;12.30;89.30;;;;;;4997596;28;20064;-77
2024/03/08 02:45:24;;;;;;;12.90;9.10;;;12.30;89.40;;;;;;4998126;28;20018;-77
2024/03/08 02:47:50;;;;;;;13.50;9.40;;;12.20;89.20;;;;;;5015198;28;20026;-77
2024/03/08 02:50:16;;;;;;;11.75;8.80;;;12.20;89.30;;;;;;4997776;28;20125;-76
2024/03/08 02:52:42;;;;;;;12.00;8.50;;;12.20;89.30;;;;;;5014889;28;20088;-77
2024/03/08 02:55:10;;;;;;;11.95;8.77;;;12.20;89.30;;;;;;5014987;28;20033;-77
2024/03/08 02:57:36;;;;;;;10.40;8.02;;;12.20;89.20;;;;;;4997343;28;20029;-76
2024/03/08 03:00:03;;;;;;;10.88;8.15;;;12.20;89.30;;;;;;4997432;28;20054;-77
2024/03/08 03:02:29;;;;;;;11.75;8.95;;;12.20;89.20;;;;;;5014436;28;20100;-77
2024/03/08 03:04:55;;;;;;;11.63;8.32;;;12.20;89.20;;;;;;4997444;28;20157;-77
2024/03/08 03:07:21;;;;;;;12.02;8.85;;;12.20;89.30;;;;;;4997296;28;20018;-77
2024/03/08 03:09:47;;;;;;;12.40;8.63;;;12.20;89.20;;;;;;4997229;28;20025;-77
2024/03/08 03:12:12;;;;;;;12.13;8.88;;;12.20;89.20;;;;;;4997088;28;20049;-77
2024/03/08 03:14:40;;;;;;;11.27;8.35;;;12.20;89.20;;;;;;4997327;28;20026;-77
2024/03/08 03:17:06;;;;;;;11.38;8.45;;;12.20;89.30;;;;;;4997203;28;20032;-76
2024/03/08 03:19:31;;;;;;;11.82;8.80;;;12.20;89.30;;;;;;5014587;28;20025;-76
2024/03/08 03:21:57;;;;;;;11.88;8.48;;;12.20;89.20;;;;;;4996189;28;20030;-77
2024/03/08 03:24:23;;;;;;;11.57;8.48;;;12.20;89.20;;;;;;4996934;28;20021;-77
2024/03/08 03:26:49;;;;;;;12.18;8.70;;;12.10;89.10;;;;;;5014325;28;20026;-77
2024/03/08 03:29:16;;;;;;;12.65;8.90;;;12.20;89.20;;;;;;4996800;28;20025;-77
2024/03/08 03:31:42;;;;;;;11.80;8.75;;;12.20;89.20;;;;;;5014181;28;20018;-77
2024/03/08 03:34:08;;;;;;;12.32;9.15;;;12.20;89.20;;;;;;4996417;28;20133;-77
2024/03/08 03:36:35;;;;;;;11.68;8.18;;;12.20;89.10;;;;;;4997015;28;20036;-77
2024/03/08 03:39:12;;;;;;;11.68;8.18;;;12.10;89.10;;;;;;5014173;28;20430;-77
2024/03/08 03:41:38;;;;;;;12.02;8.93;;;12.20;89.10;;;;;;5012938;28;20022;-76
2024/03/08 03:44:05;;;;;;;11.45;8.35;;;12.20;89.10;;;;;;4995206;28;20479;-76
2024/03/08 03:46:30;;;;;;;12.02;8.30;;;12.20;89.20;;;;;;5014004;28;20032;-76
2024/03/08 03:48:56;;;;;;;11.07;8.38;;;12.20;89.20;;;;;;5014095;28;20026;-76
2024/03/08 03:51:21;;;;;;;11.52;8.32;;;12.20;89.10;;;;;;4996609;28;20097;-77
2024/03/08 03:53:47;;;;;;;12.40;9.30;;;12.20;89.10;;;;;;4996052;28;20033;-77
2024/03/08 03:56:12;;;;;;;11.82;8.55;;;12.20;89.10;;;;;;5014295;28;20022;-77
2024/03/08 03:58:39;;;;;;;11.93;8.50;;;12.20;89.10;;;;;;4996132;28;20298;-77
2024/03/08 04:01:05;;;;;;;12.18;8.68;;;12.20;89.10;;;;;;4996391;28;20470;-77
2024/03/08 04:03:30;;;;;;;11.43;8.38;;;12.20;89.10;;;;;;5013669;28;20028;-76
2024/03/08 04:05:56;;;;;;;12.60;8.93;;;12.20;89.20;;;;;;5013530;28;20049;-77
2024/03/08 04:08:23;;;;;;;10.88;8.23;;;12.20;89.20;;;;;;5013830;28;20026;-77
2024/03/08 04:10:49;;;;;;;11.32;8.50;;;12.20;89.20;;;;;;4995828;28;20025;-77
2024/03/08 04:13:15;;;;;;;11.52;8.30;;;12.20;89.20;;;;;;4995919;28;20100;-77
2024/03/08 04:15:43;;;;;;;11.80;8.52;;;12.20;89.10;;;;;;4996137;28;20026;-76
2024/03/08 04:18:09;;;;;;;11.77;8.65;;;12.20;89.20;;;;;;5013496;28;20026;-77
2024/03/08 04:20:35;;;;;;;11.13;8.23;;;12.20;89.60;;;;;;5013220;28;20132;-77
2024/03/08 04:23:02;;;;;;;11.45;8.13;;;12.10;89.10;;;;;;5013057;28;20024;-77
2024/03/08 04:25:28;;;;;;;12.10;9.10;;;12.10;89.00;;;;;;4995688;28;20096;-77
2024/03/08 04:27:53;;;;;;;12.05;8.77;;;12.10;89.00;;;;;;5013476;28;20470;-77
2024/03/08 04:30:21;;;;;;;11.63;8.23;;;12.20;89.10;;;;;;4996060;28;20025;-77
2024/03/08 04:32:47;;;;;;;11.13;8.48;;;12.20;89.20;;;;;;4994780;28;20029;-77
2024/03/08 04:35:13;;;;;;;12.10;8.98;;;12.10;89.10;;;;;;5013278;28;20026;-77
2024/03/08 04:37:38;;;;;;;11.15;8.20;;;12.10;89.00;;;;;;4995411;28;20040;-77
2024/03/08 04:40:04;;;;;;;11.02;8.10;;;12.10;89.10;;;;;;4995324;28;20073;-77
2024/03/08 04:42:32;;;;;;;12.73;8.15;;;12.10;89.10;;;;;;5012876;28;20111;-76
2024/03/08 04:44:58;;;;;;;11.75;8.27;;;12.10;89.10;;;;;;4995259;28;20734;-77
2024/03/08 04:47:24;;;;;;;10.70;8.38;;;12.10;89.10;;;;;;5012786;28;20084;-76
2024/03/08 04:49:50;;;;;;;11.70;8.27;;;12.10;89.10;;;;;;4995097;28;20075;-76
2024/03/08 04:52:16;;;;;;;10.50;8.00;;;12.10;89.10;;;;;;4995062;28;20025;-77
2024/03/08 04:54:41;;;;;;;11.15;8.88;;;12.20;89.20;;;;;;4995334;28;20025;-77
2024/03/08 04:57:07;;;;;;;10.63;8.23;;;12.20;89.20;;;;;;5013014;28;20023;-77
2024/03/08 04:59:33;;;;;;;11.43;8.52;;;12.10;89.10;;;;;;4995023;28;20026;-77
2024/03/08 05:01:58;;;;;;;11.90;8.80;;;12.10;89.10;;;;;;4994649;28;20076;-77
2024/03/08 05:04:24;;;;;;;10.73;8.20;;;12.10;89.00;;;;;;5012657;28;20037;-77
2024/03/08 05:06:49;;;;;;;10.75;8.10;;;12.10;89.10;;;;;;4995025;28;20041;-77
2024/03/08 05:09:15;;;;;;;11.10;8.20;;;12.10;89.10;;;;;;4995013;28;20022;-77
2024/03/08 05:11:44;;;;;;;11.38;8.48;;;12.10;89.10;;;;;;5012334;28;20037;-76
2024/03/08 05:14:10;;;;;;;11.05;8.10;;;12.10;89.00;;;;;;5012447;28;20030;-77
2024/03/08 05:16:35;;;;;;;11.48;8.48;;;12.10;89.00;;;;;;5012533;28;20890;-77
2024/03/08 05:19:02;;;;;;;12.18;8.43;;;12.10;89.10;;;;;;5012514;28;20153;-77
2024/03/08 05:21:28;;;;;;;11.18;8.18;;;12.10;89.10;;;;;;4995347;28;20762;-77
2024/03/08 05:23:54;;;;;;;10.52;7.65;;;12.20;89.10;;;;;;5010545;28;20022;-78
2024/03/08 05:26:20;;;;;;;11.70;8.93;;;12.10;89.10;;;;;;4992676;28;20030;-77
2024/03/08 05:28:47;;;;;;;10.65;8.07;;;12.10;89.00;;;;;;5009246;28;20110;-77
2024/03/08 05:31:24;;;;;;;11.02;8.40;;;12.10;89.00;;;;;;4990016;28;20394;-78
2024/03/08 05:33:50;;;;;;;10.98;8.50;;;12.10;89.60;;;;;;5009235;28;20034;-79
2024/03/08 05:36:18;;;;;;;11.80;8.88;;;12.10;89.10;;;;;;4991461;28;20045;-78
2024/03/08 05:38:44;;;;;;;11.70;8.23;;;12.10;89.00;;;;;;4991607;28;20042;-77
2024/03/08 05:41:11;;;;;;;12.18;9.02;;;12.10;89.10;;;;;;4991587;28;20025;-78
2024/03/08 05:43:37;;;;;;;11.90;8.70;;;12.10;89.00;;;;;;4989927;28;20148;-78
2024/03/08 05:46:04;;;;;;;11.32;8.20;;;12.10;89.00;;;;;;4997238;28;20136;-80
2024/03/08 05:48:32;;;;;;;12.07;8.88;;;12.10;89.00;;;;;;5000961;28;20026;-78
2024/03/08 05:50:57;;;;;;;10.95;8.20;;;12.10;89.00;;;;;;5014386;28;20036;-79
2024/03/08 05:53:23;;;;;;;12.07;8.85;;;12.10;89.00;;;;;;5015235;28;20030;-76
2024/03/08 05:55:49;;;;;;;10.07;7.68;;;12.10;89.00;;;;;;5014039;28;20030;-78
2024/03/08 05:58:15;;;;;;;11.63;8.27;;;12.10;89.00;;;;;;4996633;28;20025;-77
2024/03/08 06:00:40;;;;;;;11.90;8.02;;;12.10;89.00;;;;;;4997584;28;20030;-77
2024/03/08 06:03:06;;;;;;;12.55;9.07;;;12.10;89.00;;;;;;4998250;28;20033;-78
2024/03/08 06:05:31;;;;;;;12.35;9.15;;;12.10;89.00;;;;;;4998030;28;20034;-77
2024/03/08 06:07:57;;;;;;;11.05;8.30;;;12.10;89.00;;;;;;4996960;28;20068;-78
2024/03/08 06:10:23;;;;;;;12.15;8.80;;;12.10;89.00;;;;;;4996114;28;20092;-77
2024/03/08 06:12:48;;;;;;;11.10;8.07;;;12.10;89.00;;;;;;4996822;28;20029;-78
2024/03/08 06:15:14;;;;;;;11.40;8.75;;;12.10;89.00;;;;;;5013684;28;20025;-77
2024/03/08 06:17:40;;;;;;;11.32;8.43;;;12.10;88.90;;;;;;4996776;28;20034;-77
2024/03/08 06:20:10;;;;;;;12.18;8.70;;;12.10;88.80;;;;;;4996011;28;20041;-76
2024/03/08 06:22:40;;;;;;;10.80;8.13;;;12.10;88.80;;;;;;4996967;28;20041;-77
2024/03/08 06:25:06;;;;;;;11.55;9.13;;;12.10;88.70;;;;;;4995727;28;20034;-78
2024/03/08 06:27:33;;;;;;;11.75;8.85;;;12.10;88.70;;;;;;4997849;28;20025;-78
2024/03/08 06:29:59;;;;;;;11.48;9.23;;;12.10;88.70;;;;;;4997852;28;20030;-78
2024/03/08 06:32:25;;;;;;;12.60;9.55;;;12.10;88.70;;;;;;4996982;28;20971;-76
2024/03/08 06:34:51;;;;;;;11.95;9.07;;;12.10;88.70;;;;;;4995988;28;20030;-77
2024/03/08 06:37:21;;;;;;;10.93;8.20;;;12.10;88.70;;;;;;4995396;28;20538;-76
2024/03/08 06:39:47;;;;;;;11.45;8.48;;;12.10;88.70;;;;;;4996804;28;20038;-77
2024/03/08 06:42:13;;;;;;;11.63;8.57;;;12.10;88.60;;;;;;5013094;28;20034;-78
2024/03/08 06:44:45;;;;;;;11.93;9.18;;;12.10;89.10;;;;;;5012790;28;20278;-76
2024/03/08 06:47:11;;;;;;;12.07;8.88;;;12.10;88.50;;;;;;5014126;28;20542;-77
2024/03/08 06:49:36;;;;;;;11.38;8.68;;;12.10;88.40;;;;;;5013118;28;20120;-77
2024/03/08 06:52:02;;;;;;;12.20;8.52;;;12.20;88.50;;;;;;5011889;28;20022;-76
2024/03/08 06:54:27;;;;;;;12.23;8.93;;;12.20;88.50;;;;;;5001819;28;20060;-77
2024/03/08 06:56:53;;;;;;;11.93;8.57;;;12.20;88.40;;;;;;4993055;28;20360;-78
2024/03/08 06:59:19;;;;;;;11.20;8.75;;;12.20;88.40;;;;;;4993398;28;20032;-78
2024/03/08 07:01:44;;;;;;;12.35;8.57;;;12.20;88.40;;;;;;4992945;28;20029;-78
2024/03/08 07:04:11;;;;;;;11.68;8.50;;;12.20;88.30;;;;;;4993539;28;20439;-77
2024/03/08 07:06:37;;;;;;;11.35;8.55;;;12.30;88.30;;;;;;5010364;28;20018;-78
2024/03/08 07:09:02;;;;;;;11.35;8.80;;;12.30;88.30;;;;;;4993220;28;20036;-77
2024/03/08 07:11:28;;;;;;;10.93;8.43;;;12.30;88.20;;;;;;4993566;28;20018;-76
2024/03/08 07:13:54;;;;;;;10.98;8.32;;;12.30;88.10;;;;;;4994348;28;20029;-77
2024/03/08 07:16:21;;;;;;;11.63;8.63;;;12.30;88.00;;;;;;4996943;28;20033;-76
2024/03/08 07:18:46;;;;;;;10.98;8.75;;;12.30;87.90;;;;;;4996386;28;20018;-76
2024/03/08 07:21:12;;;;;;;11.60;8.73;;;12.40;87.80;;;;;;5013844;28;20053;-77
2024/03/08 07:23:53;;;;;;;11.63;9.15;;;12.40;87.60;;;;;;4995737;28;20022;-76
2024/03/08 07:26:21;;;;;;;12.75;9.75;;;12.40;87.40;;;;;;5014281;28;20061;-76
2024/03/08 07:28:46;;;;;;;12.88;9.07;;;12.40;87.10;;;;;;5013723;28;20029;-77
2024/03/08 07:33:38;;;;;;;11.30;8.90;;;12.50;86.90;;;;;;5013935;28;20117;-76
2024/03/08 07:36:04;;;;;;;12.98;8.75;;;12.50;86.80;;;;;;4996605;28;20026;-76
2024/03/08 07:38:29;;;;;;;13.35;9.65;;;12.50;86.70;;;;;;4996613;28;20061;-77
2024/03/08 07:40:57;;;;;;;12.35;9.50;;;12.60;86.70;;;;;;5014121;28;20065;-76
2024/03/08 07:43:22;;;;;;;13.98;9.43;;;12.60;86.70;;;;;;4996146;28;20028;-76
2024/03/08 07:45:48;;;;;;;11.85;9.00;;;12.70;87.10;;;;;;5013844;28;20026;-76
2024/03/08 07:48:13;;;;;;;13.05;9.20;;;12.60;86.40;;;;;;5013928;28;20483;-77
2024/03/08 07:50:40;;;;;;;11.90;8.90;;;12.70;86.40;;;;;;4996268;28;20105;-76
2024/03/08 07:53:06;;;;;;;11.63;8.82;;;12.70;86.30;;;;;;4996156;28;20034;-77
2024/03/08 07:55:32;;;;;;;11.27;8.82;;;12.80;86.10;;;;;;4996095;28;20117;-76
2024/03/08 07:57:58;;;;;;;12.05;9.30;;;12.80;86.00;;;;;;4996073;28;20093;-76
2024/03/08 08:00:24;;;;;;;13.43;9.05;;;12.80;86.00;;;;;;4995784;28;20030;-77
2024/03/08 08:02:50;;;;;;;11.18;8.43;;;12.80;85.90;;;;;;5013317;28;20048;-77
2024/03/08 08:05:18;;;;;;;11.60;8.98;;;12.80;85.90;;;;;;4996064;28;20398;-77
2024/03/08 08:07:46;;;;;;;12.30;9.80;;;12.90;86.20;;;;;;4995040;28;20022;-76
2024/03/08 08:10:21;;;;;;;11.32;9.13;;;12.90;85.90;;;;;;4995512;28;20022;-77
2024/03/08 08:12:48;;;;;;;12.32;9.10;;;12.90;85.90;;;;;;4995394;28;20028;-77
2024/03/08 08:15:15;;;;;;;12.90;9.85;;;12.90;85.80;;;;;;5013403;28;20037;-77
2024/03/08 08:17:44;;;;;;;12.77;8.98;;;13.00;85.90;;;;;;4995765;28;20058;-76
2024/03/08 08:20:11;;;;;;;12.10;9.52;;;13.00;85.80;;;;;;5013247;28;20026;-77
2024/03/08 08:22:41;;;;;;;11.77;8.70;;;13.00;85.70;;;;;;5012989;28;20057;-77
2024/03/08 08:25:07;;;;;;;12.35;9.35;;;13.00;85.70;;;;;;4995574;28;20076;-76
2024/03/08 08:27:33;;;;;;;10.90;8.75;;;13.00;85.60;;;;;;5013316;28;20030;-77
2024/03/08 08:29:59;;;;;;;12.55;9.50;;;13.10;85.60;;;;;;4995536;28;20022;-76
2024/03/08 08:32:24;;;;;;;11.55;9.18;;;13.10;85.50;;;;;;5012943;28;20076;-77
2024/03/08 08:34:50;;;;;;;11.93;8.90;;;13.10;85.40;;;;;;4995545;28;20410;-77
2024/03/08 08:37:16;;;;;;;11.68;9.05;;;13.10;85.30;;;;;;4995340;28;20044;-76
2024/03/08 08:39:42;;;;;;;12.05;9.10;;;13.10;85.30;;;;;;4995247;28;20031;-77
2024/03/08 08:42:09;;;;;;;10.20;7.93;;;13.20;85.30;;;;;;5012590;28;20026;-76
2024/03/08 08:44:35;;;;;;;11.15;8.52;;;13.20;85.20;;;;;;4994986;28;20049;-77
2024/03/08 08:47:00;;;;;;;12.52;9.27;;;13.20;85.20;;;;;;4995277;28;20469;-77
2024/03/08 08:49:26;;;;;;;10.95;8.48;;;13.30;85.20;;;;;;5012639;28;20060;-77
2024/03/08 08:51:52;;;;;;;11.65;8.93;;;13.30;85.20;;;;;;5012881;28;20034;-76
2024/03/08 08:54:18;;;;;;;11.85;9.70;;;13.30;85.10;;;;;;4994886;28;20819;-76
2024/03/08 08:56:44;;;;;;;12.00;9.25;;;13.30;84.90;;;;;;4994926;28;20483;-77
2024/03/08 08:59:13;;;;;;;11.15;8.82;;;13.30;84.90;;;;;;4994841;28;20038;-76
2024/03/08 09:01:39;;;;;;;11.52;8.90;;;13.30;84.90;;;;;;4994906;28;20034;-76
2024/03/08 09:04:05;;;;;;;11.68;8.88;;;13.40;84.90;;;;;;4994654;28;20540;-77
2024/03/08 09:06:31;;;;;;;11.98;8.77;;;13.40;84.80;;;;;;5012478;28;20052;-76
2024/03/08 09:08:57;;;;;;;11.77;9.52;;;13.40;84.70;;;;;;4994591;28;20025;-76
2024/03/08 09:11:25;;;;;;;12.20;9.35;;;13.40;84.70;;;;;;4994049;28;20026;-77
2024/03/08 09:13:50;;;;;;;12.60;8.90;;;13.50;84.70;;;;;;5011974;28;20026;-76
2024/03/08 09:16:16;;;;;;;11.77;9.38;;;13.50;84.60;;;;;;5012126;28;20080;-77
2024/03/08 09:18:41;;;;;;;11.65;9.30;;;13.50;84.40;;;;;;5011747;28;20029;-77
2024/03/08 09:21:09;;;;;;;11.75;8.95;;;13.50;84.10;;;;;;4994741;28;20024;-77
2024/03/08 09:23:35;;;;;;;11.00;8.73;;;13.50;84.30;;;;;;5011960;28;20022;-77
2024/03/08 09:26:02;;;;;;;11.77;9.30;;;13.50;84.20;;;;;;5012372;28;20022;-76
2024/03/08 09:28:28;;;;;;;11.18;9.18;;;13.50;84.20;;;;;;5012333;28;20021;-76
2024/03/08 09:30:54;;;;;;;11.90;9.40;;;13.60;84.30;;;;;;4994711;28;20431;-77
2024/03/08 09:33:20;;;;;;;11.75;9.60;;;13.60;84.10;;;;;;5011738;28;20030;-77
2024/03/08 09:35:46;;;;;;;11.32;8.68;;;13.60;84.10;;;;;;4994594;28;20029;-76
2024/03/08 09:38:13;;;;;;;13.35;9.63;;;13.60;84.00;;;;;;5011836;28;20045;-76
2024/03/08 09:40:40;;;;;;;12.00;9.60;;;13.60;84.00;;;;;;5012295;28;20026;-77
2024/03/08 09:43:06;;;;;;;11.88;9.07;;;13.60;83.90;;;;;;4994316;28;20026;-77
2024/03/08 09:45:35;;;;;;;11.45;9.23;;;13.60;83.90;;;;;;4994547;28;20029;-76
2024/03/08 09:48:01;;;;;;;11.32;8.80;;;13.70;83.80;;;;;;4994763;28;20017;-76
2024/03/08 09:50:29;;;;;;;12.48;9.50;;;13.70;83.80;;;;;;5011895;28;20467;-77
2024/03/08 09:52:57;;;;;;;11.55;9.50;;;13.70;83.70;;;;;;4994210;28;20029;-77
2024/03/08 09:55:23;;;;;;;11.55;9.25;;;13.70;83.80;;;;;;4994360;28;20079;-77
2024/03/08 10:00:34;;;;;;;11.77;9.30;;;13.70;83.70;;;;;;5011860;28;20509;-75
2024/03/08 10:03:03;;;;;;;12.40;9.27;;;13.70;83.80;;;;;;4994135;28;20038;-77
2024/03/08 10:05:32;;;;;;;11.63;8.95;;;13.70;83.70;;;;;;5011930;28;20026;-76
2024/03/08 10:07:58;;;;;;;12.32;9.70;;;13.80;83.70;;;;;;5011973;28;20098;-77
2024/03/08 10:10:24;;;;;;;11.55;9.43;;;13.80;83.70;;;;;;4993740;28;20028;-76
2024/03/08 10:12:49;;;;;;;11.45;9.68;;;13.80;83.80;;;;;;5011398;28;20030;-77
2024/03/08 10:15:16;;;;;;;11.57;9.43;;;13.80;83.70;;;;;;5011516;28;20389;-76
2024/03/08 10:17:43;;;;;;;13.00;9.38;;;13.80;83.60;;;;;;4994071;28;20026;-77
2024/03/08 10:20:18;;;;;;;11.93;9.20;;;13.80;83.70;;;;;;4994366;28;20026;-77
2024/03/08 10:22:44;;;;;;;12.35;9.93;;;13.80;83.60;;;;;;5011155;28;20440;-76
2024/03/08 10:25:11;;;;;;;12.55;9.48;;;13.90;83.60;;;;;;5011809;28;20058;-76
2024/03/08 10:27:39;;;;;;;11.90;9.43;;;13.80;83.60;;;;;;4993996;28;20112;-77
2024/03/08 10:30:08;;;;;;;11.82;9.18;;;13.90;83.60;;;;;;4993884;28;20026;-77
2024/03/08 10:32:34;;;;;;;11.73;9.18;;;13.90;83.70;;;;;;5014937;28;20041;-76
2024/03/08 10:34:59;;;;;;;12.13;9.50;;;13.90;83.60;;;;;;4997732;28;20038;-77
2024/03/08 10:37:28;;;;;;;11.40;8.98;;;13.90;83.60;;;;;;5015228;28;20495;-76
2024/03/08 10:40:10;;;;;;;12.70;9.45;;;13.90;83.60;;;;;;4997267;28;20037;-77
2024/03/08 10:42:41;;;;;;;12.05;9.30;;;13.90;83.60;;;;;;5014907;28;20022;-76
2024/03/08 10:45:15;;;;;;;12.37;8.97;;;13.90;83.50;;;;;;5014948;28;20026;-77
2024/03/08 10:47:41;;;;;;;11.85;9.10;;;13.90;83.50;;;;;;5015283;28;20048;-77
2024/03/08 10:50:25;;;;;;;12.90;9.25;;;13.90;83.40;;;;;;4997334;28;20387;-77
2024/03/08 10:52:51;;;;;;;13.15;9.32;;;14.00;83.50;;;;;;4996968;28;20030;-76
2024/03/08 10:55:20;;;;;;;12.43;9.90;;;14.00;83.40;;;;;;5014698;28;20613;-77
2024/03/08 10:57:46;;;;;;;11.15;8.52;;;14.00;83.30;;;;;;5014761;28;20022;-77
2024/03/08 11:00:13;;;;;;;11.13;9.10;;;14.00;83.30;;;;;;4996843;28;20497;-77
2024/03/08 11:02:38;;;;;;;10.88;8.80;;;14.00;83.30;;;;;;4996579;28;20034;-76
2024/03/08 11:05:05;;;;;;;12.27;9.57;;;14.00;83.30;;;;;;5014502;28;20025;-77
2024/03/08 11:07:35;;;;;;;11.75;9.15;;;14.00;83.30;;;;;;5014652;28;20033;-77
2024/03/08 11:10:05;;;;;;;12.55;9.50;;;14.00;83.20;;;;;;4996296;28;20025;-77
2024/03/08 11:12:36;;;;;;;11.73;9.07;;;14.00;83.20;;;;;;4996669;28;20030;-77
2024/03/08 11:15:11;;;;;;;12.30;9.27;;;14.00;83.20;;;;;;5014584;28;20402;-77
2024/03/08 11:17:38;;;;;;;11.15;9.18;;;14.00;83.20;;;;;;4997045;28;20030;-77
2024/03/08 11:20:15;;;;;;;11.30;9.02;;;14.00;83.20;;;;;;4996740;28;20026;-76
2024/03/08 11:22:45;;;;;;;11.15;9.25;;;14.00;83.20;;;;;;4996548;28;20494;-77
2024/03/08 11:25:45;;;;;;;11.55;9.10;;;14.00;83.10;;;;;;5014312;28;20449;-76
2024/03/08 11:28:17;;;;;;;13.10;9.15;;;14.00;83.10;;;;;;4996861;28;20121;-76
2024/03/08 11:30:58;;;;;;;11.48;8.88;;;14.00;83.10;;;;;;4996507;28;20546;-76
2024/03/08 11:33:27;;;;;;;11.32;9.05;;;14.00;83.00;;;;;;5013913;28;20509;-77
2024/03/08 11:35:57;;;;;;;11.05;9.02;;;14.00;82.90;;;;;;5014006;28;20030;-77
2024/03/08 11:38:23;;;;;;;10.95;8.75;;;14.00;82.90;;;;;;5013988;28;20030;-76
2024/03/08 11:40:49;;;;;;;11.68;8.90;;;14.00;82.80;;;;;;5014157;28;20044;-76
2024/03/08 11:43:16;;;;;;;11.77;9.15;;;14.10;82.90;;;;;;5013217;28;20032;-76
2024/03/08 11:45:42;;;;;;;11.57;8.90;;;14.10;82.90;;;;;;4996235;28;20022;-76
2024/03/08 11:48:08;;;;;;;12.55;9.65;;;14.10;82.80;;;;;;5014281;28;20084;-75
2024/03/08 11:50:33;;;;;;;12.00;8.95;;;14.00;82.80;;;;;;5013538;28;20040;-76
2024/03/08 11:53:05;;;;;;;11.52;9.30;;;14.10;82.80;;;;;;4996010;28;20517;-75
2024/03/08 11:55:35;;;;;;;;;;;14.10;82.80;;;;;;5014250;28;20057;-76
2024/03/08 11:58:02;;;;;;;11.70;9.40;;;14.00;82.80;;;;;;5013623;28;19910;-76
2024/03/08 12:00:34;;;;;;;12.93;10.07;;;14.00;82.80;;;;;;5013100;28;20030;-76
2024/03/08 12:03:06;;;;;;;11.57;8.90;;;14.10;82.90;;;;;;5013045;28;20029;-77
2024/03/08 12:05:33;;;;;;;11.43;8.93;;;14.00;82.90;;;;;;5013516;28;20026;-77
2024/03/08 12:07:59;;;;;;;11.60;8.82;;;14.00;82.90;;;;;;4996105;28;20033;-76
2024/03/08 12:10:25;;;;;;;12.18;9.70;;;14.00;82.90;;;;;;4995460;28;20038;-76
2024/03/08 12:12:59;;;;;;;11.45;9.00;;;14.00;82.90;;;;;;5013245;28;20395;-76
2024/03/08 12:15:25;;;;;;;11.00;8.70;;;14.00;82.90;;;;;;4996026;28;20052;-76
2024/03/08 12:17:52;;;;;;;11.25;8.73;;;14.00;82.90;;;;;;5013279;28;20473;-76
2024/03/08 12:20:23;;;;;;;11.30;9.02;;;14.00;82.90;;;;;;5013240;28;20029;-76
2024/03/08 12:22:52;;;;;;;11.38;9.13;;;14.00;82.90;;;;;;5013107;28;20022;-76
2024/03/08 12:25:18;;;;;;;11.35;8.93;;;14.00;82.90;;;;;;4995873;28;20095;-76
2024/03/08 12:27:44;;;;;;;12.40;9.57;;;14.00;82.90;;;;;;4995496;28;20029;-76
2024/03/08 12:30:45;;;;;;;11.80;9.55;;;14.00;82.90;;;;;;4995562;28;20026;-76
2024/03/08 12:33:12;;;;;;;11.00;8.95;;;14.00;82.90;;;;;;4995310;28;20034;-76
2024/03/08 12:35:38;;;;;;;12.00;9.45;;;14.00;82.90;;;;;;5012743;28;20045;-76
2024/03/08 12:38:05;;;;;;;11.68;9.18;;;14.00;82.90;;;;;;5012790;28;20065;-76
2024/03/08 12:40:34;;;;;;;11.80;9.27;;;14.00;82.90;;;;;;5012993;28;20032;-77
2024/03/08 12:43:00;;;;;;;12.35;9.20;;;14.00;82.90;;;;;;5012641;28;20026;-77